sensor_id;sensor_type;location;lat;lon;timestamp;P1;durP1;ratioP1;P2;durP2;ratioP2
22786;SDS011;63134;52.020;4.714;2022-12-19T00:01:58;127.60;;;45.53;;
22786;SDS011;63134;52.020;4.714;2022-12-19T00:04:44;127.05;;;43.90;;
22786;SDS011;63134;52.020;4.714;2022-12-19T00:07:30;116.85;;;43.15;;
22786;SDS011;63134;52.020;4.714;2022-12-19T00:10:15;132.15;;;45.55;;
22786;SDS011;63134;52.020;4.714;2022-12-19T00:13:01;136.68;;;44.20;;
22786;SDS011;63134;52.020;4.714;2022-12-19T00:15:46;134.50;;;44.88;;
22786;SDS011;63134;52.020;4.714;2022-12-19T00:18:34;120.38;;;45.35;;
22786;SDS011;63134;52.020;4.714;2022-12-19T00:21:21;118.22;;;41.33;;
22786;SDS011;63134;52.020;4.714;2022-12-19T00:24:09;132.25;;;43.42;;
22786;SDS011;63134;52.020;4.714;2022-12-19T00:27:06;138.30;;;45.25;;
22786;SDS011;63134;52.020;4.714;2022-12-19T00:29:52;143.15;;;46.25;;
22786;SDS011;63134;52.020;4.714;2022-12-19T00:32:37;118.38;;;42.47;;
22786;SDS011;63134;52.020;4.714;2022-12-19T00:35:23;131.45;;;42.33;;
22786;SDS011;63134;52.020;4.714;2022-12-19T00:38:11;120.93;;;40.13;;
22786;SDS011;63134;52.020;4.714;2022-12-19T00:41:15;147.68;;;44.90;;
22786;SDS011;63134;52.020;4.714;2022-12-19T00:44:06;103.75;;;36.95;;
22786;SDS011;63134;52.020;4.714;2022-12-19T00:46:54;108.53;;;37.95;;
22786;SDS011;63134;52.020;4.714;2022-12-19T00:49:40;113.85;;;39.55;;
22786;SDS011;63134;52.020;4.714;2022-12-19T00:52:26;107.43;;;36.80;;
22786;SDS011;63134;52.020;4.714;2022-12-19T00:55:14;104.95;;;37.70;;
22786;SDS011;63134;52.020;4.714;2022-12-19T00:58:03;98.60;;;34.17;;
22786;SDS011;63134;52.020;4.714;2022-12-19T01:00:49;97.13;;;34.55;;
22786;SDS011;63134;52.020;4.714;2022-12-19T01:03:34;100.20;;;35.20;;
22786;SDS011;63134;52.020;4.714;2022-12-19T01:06:19;114.03;;;38.08;;
22786;SDS011;63134;52.020;4.714;2022-12-19T01:09:05;102.53;;;35.50;;
22786;SDS011;63134;52.020;4.714;2022-12-19T01:11:51;94.68;;;36.50;;
22786;SDS011;63134;52.020;4.714;2022-12-19T01:14:55;89.68;;;33.03;;
22786;SDS011;63134;52.020;4.714;2022-12-19T01:17:48;118.35;;;38.92;;
22786;SDS011;63134;52.020;4.714;2022-12-19T01:20:37;93.28;;;34.42;;
22786;SDS011;63134;52.020;4.714;2022-12-19T01:23:26;88.65;;;35.20;;
22786;SDS011;63134;52.020;4.714;2022-12-19T01:26:12;84.50;;;32.92;;
22786;SDS011;63134;52.020;4.714;2022-12-19T01:28:58;66.15;;;28.98;;
22786;SDS011;63134;52.020;4.714;2022-12-19T01:31:44;74.50;;;30.90;;
22786;SDS011;63134;52.020;4.714;2022-12-19T01:34:30;87.85;;;33.65;;
22786;SDS011;63134;52.020;4.714;2022-12-19T01:37:16;85.15;;;31.70;;
22786;SDS011;63134;52.020;4.714;2022-12-19T01:40:02;86.15;;;32.90;;
22786;SDS011;63134;52.020;4.714;2022-12-19T01:42:50;78.68;;;29.25;;
22786;SDS011;63134;52.020;4.714;2022-12-19T01:45:35;98.60;;;38.75;;
22786;SDS011;63134;52.020;4.714;2022-12-19T01:48:39;81.57;;;32.00;;
22786;SDS011;63134;52.020;4.714;2022-12-19T01:51:33;88.95;;;34.75;;
22786;SDS011;63134;52.020;4.714;2022-12-19T01:54:24;92.05;;;33.00;;
22786;SDS011;63134;52.020;4.714;2022-12-19T01:57:17;88.95;;;35.65;;
22786;SDS011;63134;52.020;4.714;2022-12-19T02:00:04;95.38;;;35.80;;
22786;SDS011;63134;52.020;4.714;2022-12-19T02:02:58;100.35;;;36.47;;
22786;SDS011;63134;52.020;4.714;2022-12-19T02:05:51;88.18;;;37.20;;
22786;SDS011;63134;52.020;4.714;2022-12-19T02:08:38;92.20;;;34.08;;
22786;SDS011;63134;52.020;4.714;2022-12-19T02:11:26;79.43;;;33.28;;
22786;SDS011;63134;52.020;4.714;2022-12-19T02:14:11;90.68;;;35.92;;
22786;SDS011;63134;52.020;4.714;2022-12-19T02:16:58;78.20;;;32.60;;
22786;SDS011;63134;52.020;4.714;2022-12-19T02:20:11;77.20;;;31.65;;
22786;SDS011;63134;52.020;4.714;2022-12-19T02:38:26;74.28;;;29.88;;
22786;SDS011;63134;52.020;4.714;2022-12-19T02:41:39;78.80;;;32.83;;
22786;SDS011;63134;52.020;4.714;2022-12-19T02:44:42;71.20;;;29.60;;
22786;SDS011;63134;52.020;4.714;2022-12-19T02:47:33;62.50;;;27.50;;
22786;SDS011;63134;52.020;4.714;2022-12-19T02:50:21;57.03;;;26.55;;
22786;SDS011;63134;52.020;4.714;2022-12-19T02:53:08;57.95;;;25.65;;
22786;SDS011;63134;52.020;4.714;2022-12-19T02:59:17;50.08;;;22.73;;
22786;SDS011;63134;52.020;4.714;2022-12-19T03:11:45;54.38;;;24.52;;
22786;SDS011;63134;52.020;4.714;2022-12-19T03:14:35;57.13;;;25.15;;
22786;SDS011;63134;52.020;4.714;2022-12-19T03:17:21;49.25;;;23.75;;
22786;SDS011;63134;52.020;4.714;2022-12-19T03:20:08;48.88;;;23.35;;
22786;SDS011;63134;52.020;4.714;2022-12-19T03:23:08;44.95;;;23.30;;
22786;SDS011;63134;52.020;4.714;2022-12-19T03:25:55;48.13;;;24.08;;
22786;SDS011;63134;52.020;4.714;2022-12-19T03:31:33;52.08;;;23.90;;
22786;SDS011;63134;52.020;4.714;2022-12-19T03:34:24;50.72;;;22.92;;
22786;SDS011;63134;52.020;4.714;2022-12-19T03:37:23;54.10;;;24.23;;
22786;SDS011;63134;52.020;4.714;2022-12-19T03:40:15;46.45;;;21.50;;
22786;SDS011;63134;52.020;4.714;2022-12-19T03:43:04;52.25;;;24.08;;
22786;SDS011;63134;52.020;4.714;2022-12-19T03:45:57;45.95;;;21.05;;
22786;SDS011;63134;52.020;4.714;2022-12-19T03:48:58;47.47;;;21.23;;
22786;SDS011;63134;52.020;4.714;2022-12-19T03:52:01;53.78;;;23.70;;
22786;SDS011;63134;52.020;4.714;2022-12-19T03:54:54;50.40;;;20.55;;
22786;SDS011;63134;52.020;4.714;2022-12-19T03:57:57;42.90;;;20.63;;
22786;SDS011;63134;52.020;4.714;2022-12-19T04:00:50;48.53;;;23.85;;
22786;SDS011;63134;52.020;4.714;2022-12-19T04:03:37;48.17;;;22.85;;
22786;SDS011;63134;52.020;4.714;2022-12-19T04:06:22;56.20;;;24.70;;
22786;SDS011;63134;52.020;4.714;2022-12-19T04:09:08;56.10;;;23.90;;
22786;SDS011;63134;52.020;4.714;2022-12-19T04:11:57;52.08;;;23.88;;
22786;SDS011;63134;52.020;4.714;2022-12-19T04:14:47;43.80;;;23.52;;
22786;SDS011;63134;52.020;4.714;2022-12-19T04:17:34;51.22;;;24.63;;
22786;SDS011;63134;52.020;4.714;2022-12-19T04:20:28;57.33;;;25.05;;
22786;SDS011;63134;52.020;4.714;2022-12-19T04:26:34;49.55;;;23.75;;
22786;SDS011;63134;52.020;4.714;2022-12-19T04:29:25;53.67;;;27.48;;
22786;SDS011;63134;52.020;4.714;2022-12-19T04:32:18;50.03;;;25.33;;
22786;SDS011;63134;52.020;4.714;2022-12-19T04:35:04;52.80;;;24.15;;
22786;SDS011;63134;52.020;4.714;2022-12-19T04:37:50;59.33;;;26.75;;
22786;SDS011;63134;52.020;4.714;2022-12-19T04:40:36;53.67;;;27.58;;
22786;SDS011;63134;52.020;4.714;2022-12-19T04:43:25;56.33;;;29.25;;
22786;SDS011;63134;52.020;4.714;2022-12-19T04:46:11;48.15;;;25.38;;
22786;SDS011;63134;52.020;4.714;2022-12-19T04:48:59;50.13;;;27.23;;
22786;SDS011;63134;52.020;4.714;2022-12-19T04:51:45;47.70;;;24.45;;
22786;SDS011;63134;52.020;4.714;2022-12-19T04:54:31;51.92;;;27.23;;
22786;SDS011;63134;52.020;4.714;2022-12-19T04:57:19;56.30;;;28.48;;
22786;SDS011;63134;52.020;4.714;2022-12-19T05:00:05;50.67;;;28.60;;
22786;SDS011;63134;52.020;4.714;2022-12-19T05:02:52;53.45;;;28.90;;
22786;SDS011;63134;52.020;4.714;2022-12-19T05:05:38;61.10;;;31.15;;
22786;SDS011;63134;52.020;4.714;2022-12-19T05:08:23;57.55;;;29.73;;
22786;SDS011;63134;52.020;4.714;2022-12-19T05:11:12;49.78;;;27.63;;
22786;SDS011;63134;52.020;4.714;2022-12-19T05:14:04;52.47;;;31.65;;
22786;SDS011;63134;52.020;4.714;2022-12-19T05:16:54;54.28;;;31.30;;
22786;SDS011;63134;52.020;4.714;2022-12-19T05:19:45;44.80;;;29.55;;
22786;SDS011;63134;52.020;4.714;2022-12-19T05:22:31;59.95;;;33.80;;
22786;SDS011;63134;52.020;4.714;2022-12-19T05:25:21;52.97;;;31.55;;
22786;SDS011;63134;52.020;4.714;2022-12-19T05:28:09;52.42;;;29.58;;
22786;SDS011;63134;52.020;4.714;2022-12-19T05:31:02;46.45;;;29.33;;
22786;SDS011;63134;52.020;4.714;2022-12-19T05:33:51;46.45;;;28.00;;
22786;SDS011;63134;52.020;4.714;2022-12-19T05:36:36;60.80;;;32.53;;
22786;SDS011;63134;52.020;4.714;2022-12-19T05:39:22;44.30;;;28.33;;
22786;SDS011;63134;52.020;4.714;2022-12-19T05:42:08;44.15;;;28.27;;
22786;SDS011;63134;52.020;4.714;2022-12-19T05:44:56;48.67;;;30.60;;
22786;SDS011;63134;52.020;4.714;2022-12-19T05:47:43;49.80;;;30.48;;
22786;SDS011;63134;52.020;4.714;2022-12-19T05:50:30;50.58;;;29.38;;
22786;SDS011;63134;52.020;4.714;2022-12-19T05:56:15;44.33;;;24.75;;
22786;SDS011;63134;52.020;4.714;2022-12-19T05:59:03;41.50;;;24.23;;
22786;SDS011;63134;52.020;4.714;2022-12-19T06:01:48;38.55;;;25.75;;
22786;SDS011;63134;52.020;4.714;2022-12-19T06:04:35;43.35;;;24.52;;
22786;SDS011;63134;52.020;4.714;2022-12-19T06:07:20;47.42;;;28.05;;
22786;SDS011;63134;52.020;4.714;2022-12-19T06:10:06;43.25;;;24.17;;
22786;SDS011;63134;52.020;4.714;2022-12-19T06:12:52;45.33;;;25.42;;
22786;SDS011;63134;52.020;4.714;2022-12-19T06:15:37;37.45;;;22.45;;
22786;SDS011;63134;52.020;4.714;2022-12-19T06:18:24;47.65;;;27.33;;
22786;SDS011;63134;52.020;4.714;2022-12-19T06:21:10;48.00;;;25.35;;
22786;SDS011;63134;52.020;4.714;2022-12-19T06:23:58;42.10;;;23.35;;
22786;SDS011;63134;52.020;4.714;2022-12-19T06:26:44;49.92;;;27.23;;
22786;SDS011;63134;52.020;4.714;2022-12-19T06:29:32;47.03;;;27.42;;
22786;SDS011;63134;52.020;4.714;2022-12-19T06:32:20;53.05;;;27.38;;
22786;SDS011;63134;52.020;4.714;2022-12-19T06:35:06;50.33;;;28.05;;
22786;SDS011;63134;52.020;4.714;2022-12-19T06:37:52;46.20;;;23.40;;
22786;SDS011;63134;52.020;4.714;2022-12-19T06:40:44;51.00;;;27.27;;
22786;SDS011;63134;52.020;4.714;2022-12-19T06:43:50;41.10;;;24.60;;
22786;SDS011;63134;52.020;4.714;2022-12-19T06:46:37;42.42;;;24.77;;
22786;SDS011;63134;52.020;4.714;2022-12-19T06:49:24;40.08;;;22.92;;
22786;SDS011;63134;52.020;4.714;2022-12-19T06:52:10;36.40;;;22.20;;
22786;SDS011;63134;52.020;4.714;2022-12-19T06:54:55;43.13;;;24.02;;
22786;SDS011;63134;52.020;4.714;2022-12-19T06:57:43;34.28;;;21.00;;
22786;SDS011;63134;52.020;4.714;2022-12-19T07:00:32;32.45;;;19.42;;
22786;SDS011;63134;52.020;4.714;2022-12-19T07:03:21;26.10;;;16.67;;
22786;SDS011;63134;52.020;4.714;2022-12-19T07:06:09;26.67;;;18.52;;
22786;SDS011;63134;52.020;4.714;2022-12-19T07:08:54;26.63;;;17.40;;
22786;SDS011;63134;52.020;4.714;2022-12-19T07:11:40;22.70;;;14.63;;
22786;SDS011;63134;52.020;4.714;2022-12-19T07:14:25;26.83;;;16.17;;
22786;SDS011;63134;52.020;4.714;2022-12-19T07:17:11;21.77;;;15.52;;
22786;SDS011;63134;52.020;4.714;2022-12-19T07:20:00;24.98;;;15.43;;
22786;SDS011;63134;52.020;4.714;2022-12-19T07:22:45;23.75;;;13.65;;
22786;SDS011;63134;52.020;4.714;2022-12-19T07:25:32;18.13;;;13.52;;
22786;SDS011;63134;52.020;4.714;2022-12-19T07:28:18;20.02;;;13.90;;
22786;SDS011;63134;52.020;4.714;2022-12-19T07:31:03;18.85;;;13.77;;
22786;SDS011;63134;52.020;4.714;2022-12-19T07:33:51;19.00;;;11.98;;
22786;SDS011;63134;52.020;4.714;2022-12-19T07:36:36;18.33;;;11.98;;
22786;SDS011;63134;52.020;4.714;2022-12-19T07:39:22;17.20;;;10.30;;
22786;SDS011;63134;52.020;4.714;2022-12-19T07:42:07;20.67;;;11.23;;
22786;SDS011;63134;52.020;4.714;2022-12-19T07:44:55;19.45;;;12.68;;
22786;SDS011;63134;52.020;4.714;2022-12-19T07:47:41;21.95;;;13.00;;
22786;SDS011;63134;52.020;4.714;2022-12-19T07:50:27;20.55;;;12.90;;
22786;SDS011;63134;52.020;4.714;2022-12-19T07:53:14;18.63;;;12.25;;
22786;SDS011;63134;52.020;4.714;2022-12-19T07:56:00;19.38;;;12.68;;
22786;SDS011;63134;52.020;4.714;2022-12-19T07:58:47;19.42;;;12.13;;
22786;SDS011;63134;52.020;4.714;2022-12-19T08:01:34;17.50;;;11.77;;
22786;SDS011;63134;52.020;4.714;2022-12-19T08:04:19;18.45;;;10.95;;
22786;SDS011;63134;52.020;4.714;2022-12-19T08:07:07;14.95;;;12.10;;
22786;SDS011;63134;52.020;4.714;2022-12-19T08:09:53;19.50;;;12.90;;
22786;SDS011;63134;52.020;4.714;2022-12-19T08:12:41;21.00;;;13.30;;
22786;SDS011;63134;52.020;4.714;2022-12-19T08:15:27;23.60;;;12.77;;
22786;SDS011;63134;52.020;4.714;2022-12-19T08:18:16;24.00;;;14.25;;
22786;SDS011;63134;52.020;4.714;2022-12-19T08:21:01;21.73;;;12.38;;
22786;SDS011;63134;52.020;4.714;2022-12-19T08:23:49;21.88;;;14.73;;
22786;SDS011;63134;52.020;4.714;2022-12-19T08:26:38;22.33;;;14.30;;
22786;SDS011;63134;52.020;4.714;2022-12-19T08:29:31;22.35;;;15.23;;
22786;SDS011;63134;52.020;4.714;2022-12-19T08:32:17;22.20;;;14.02;;
22786;SDS011;63134;52.020;4.714;2022-12-19T08:35:15;24.40;;;13.90;;
22786;SDS011;63134;52.020;4.714;2022-12-19T08:38:00;23.67;;;14.18;;
22786;SDS011;63134;52.020;4.714;2022-12-19T08:40:52;16.92;;;12.73;;
22786;SDS011;63134;52.020;4.714;2022-12-19T08:43:38;22.63;;;13.32;;
22786;SDS011;63134;52.020;4.714;2022-12-19T08:46:23;25.33;;;14.00;;
22786;SDS011;63134;52.020;4.714;2022-12-19T08:49:09;23.85;;;15.02;;
22786;SDS011;63134;52.020;4.714;2022-12-19T08:51:57;24.33;;;15.15;;
22786;SDS011;63134;52.020;4.714;2022-12-19T08:54:43;25.08;;;15.45;;
22786;SDS011;63134;52.020;4.714;2022-12-19T08:57:29;24.80;;;14.98;;
22786;SDS011;63134;52.020;4.714;2022-12-19T09:00:14;22.02;;;13.23;;
22786;SDS011;63134;52.020;4.714;2022-12-19T09:03:02;17.98;;;13.75;;
22786;SDS011;63134;52.020;4.714;2022-12-19T09:05:54;21.58;;;13.40;;
22786;SDS011;63134;52.020;4.714;2022-12-19T09:08:56;20.10;;;13.18;;
22786;SDS011;63134;52.020;4.714;2022-12-19T09:11:44;21.83;;;13.05;;
22786;SDS011;63134;52.020;4.714;2022-12-19T09:14:32;18.27;;;12.55;;
22786;SDS011;63134;52.020;4.714;2022-12-19T09:17:21;17.38;;;11.63;;
22786;SDS011;63134;52.020;4.714;2022-12-19T09:20:07;19.20;;;12.75;;
22786;SDS011;63134;52.020;4.714;2022-12-19T09:22:57;16.42;;;11.52;;
22786;SDS011;63134;52.020;4.714;2022-12-19T09:25:43;15.38;;;10.98;;
22786;SDS011;63134;52.020;4.714;2022-12-19T09:28:28;19.92;;;10.98;;
22786;SDS011;63134;52.020;4.714;2022-12-19T09:31:15;15.93;;;11.52;;
22786;SDS011;63134;52.020;4.714;2022-12-19T09:34:08;17.92;;;11.95;;
22786;SDS011;63134;52.020;4.714;2022-12-19T09:36:53;17.55;;;11.07;;
22786;SDS011;63134;52.020;4.714;2022-12-19T09:39:39;19.58;;;11.88;;
22786;SDS011;63134;52.020;4.714;2022-12-19T09:45:48;16.77;;;12.23;;
22786;SDS011;63134;52.020;4.714;2022-12-19T09:48:35;22.15;;;12.77;;
22786;SDS011;63134;52.020;4.714;2022-12-19T09:57:11;19.70;;;12.00;;
22786;SDS011;63134;52.020;4.714;2022-12-19T10:00:01;14.27;;;10.52;;
22786;SDS011;63134;52.020;4.714;2022-12-19T10:02:55;15.98;;;10.45;;
22786;SDS011;63134;52.020;4.714;2022-12-19T10:05:48;20.98;;;11.10;;
22786;SDS011;63134;52.020;4.714;2022-12-19T10:08:56;16.45;;;9.85;;
22786;SDS011;63134;52.020;4.714;2022-12-19T10:12:18;16.25;;;8.60;;
22786;SDS011;63134;52.020;4.714;2022-12-19T10:28:24;14.65;;;8.25;;
22786;SDS011;63134;52.020;4.714;2022-12-19T10:31:32;14.00;;;7.57;;
22786;SDS011;63134;52.020;4.714;2022-12-19T10:34:41;17.03;;;7.90;;
22786;SDS011;63134;52.020;4.714;2022-12-19T10:37:29;12.43;;;8.05;;
22786;SDS011;63134;52.020;4.714;2022-12-19T10:40:37;15.02;;;8.25;;
22786;SDS011;63134;52.020;4.714;2022-12-19T10:49:26;11.98;;;7.20;;
22786;SDS011;63134;52.020;4.714;2022-12-19T10:52:13;12.82;;;7.18;;
22786;SDS011;63134;52.020;4.714;2022-12-19T10:55:09;11.63;;;6.93;;
22786;SDS011;63134;52.020;4.714;2022-12-19T10:58:25;11.07;;;7.22;;
22786;SDS011;63134;52.020;4.714;2022-12-19T11:01:20;9.15;;;7.53;;
22786;SDS011;63134;52.020;4.714;2022-12-19T11:10:01;14.23;;;7.20;;
22786;SDS011;63134;52.020;4.714;2022-12-19T11:16:33;8.32;;;6.53;;
22786;SDS011;63134;52.020;4.714;2022-12-19T11:19:40;13.13;;;8.02;;
22786;SDS011;63134;52.020;4.714;2022-12-19T11:26:05;12.10;;;8.77;;
22786;SDS011;63134;52.020;4.714;2022-12-19T11:29:22;11.90;;;8.98;;
22786;SDS011;63134;52.020;4.714;2022-12-19T11:32:35;17.73;;;10.18;;
22786;SDS011;63134;52.020;4.714;2022-12-19T11:35:29;13.27;;;8.48;;
22786;SDS011;63134;52.020;4.714;2022-12-19T11:38:39;15.40;;;10.18;;
22786;SDS011;63134;52.020;4.714;2022-12-19T11:41:32;14.90;;;9.40;;
22786;SDS011;63134;52.020;4.714;2022-12-19T11:44:31;13.82;;;8.68;;
22786;SDS011;63134;52.020;4.714;2022-12-19T11:47:55;15.90;;;9.70;;
22786;SDS011;63134;52.020;4.714;2022-12-19T11:51:13;14.95;;;8.57;;
22786;SDS011;63134;52.020;4.714;2022-12-19T11:54:29;14.00;;;7.78;;
22786;SDS011;63134;52.020;4.714;2022-12-19T11:57:52;12.18;;;7.60;;
22786;SDS011;63134;52.020;4.714;2022-12-19T12:00:39;10.45;;;7.57;;
22786;SDS011;63134;52.020;4.714;2022-12-19T12:03:42;13.40;;;6.93;;
22786;SDS011;63134;52.020;4.714;2022-12-19T12:06:50;10.93;;;7.97;;
22786;SDS011;63134;52.020;4.714;2022-12-19T12:20:38;12.82;;;8.05;;
22786;SDS011;63134;52.020;4.714;2022-12-19T12:27:49;14.15;;;7.53;;
22786;SDS011;63134;52.020;4.714;2022-12-19T12:44:49;7.18;;;5.70;;
22786;SDS011;63134;52.020;4.714;2022-12-19T12:47:39;10.30;;;5.95;;
22786;SDS011;63134;52.020;4.714;2022-12-19T12:50:25;8.15;;;5.35;;
22786;SDS011;63134;52.020;4.714;2022-12-19T12:53:12;10.20;;;6.28;;
22786;SDS011;63134;52.020;4.714;2022-12-19T12:56:02;11.07;;;5.50;;
22786;SDS011;63134;52.020;4.714;2022-12-19T13:01:38;11.07;;;5.50;;
22786;SDS011;63134;52.020;4.714;2022-12-19T13:07:33;10.88;;;5.30;;
22786;SDS011;63134;52.020;4.714;2022-12-19T13:10:34;10.48;;;6.40;;
22786;SDS011;63134;52.020;4.714;2022-12-19T13:13:20;11.02;;;6.00;;
22786;SDS011;63134;52.020;4.714;2022-12-19T13:16:52;11.07;;;6.13;;
22786;SDS011;63134;52.020;4.714;2022-12-19T13:19:38;8.45;;;6.32;;
22786;SDS011;63134;52.020;4.714;2022-12-19T13:22:37;9.50;;;5.72;;
22786;SDS011;63134;52.020;4.714;2022-12-19T13:34:09;9.82;;;5.75;;
22786;SDS011;63134;52.020;4.714;2022-12-19T13:37:19;8.77;;;6.47;;
22786;SDS011;63134;52.020;4.714;2022-12-19T13:43:29;8.05;;;5.60;;
22786;SDS011;63134;52.020;4.714;2022-12-19T13:49:29;9.20;;;5.80;;
22786;SDS011;63134;52.020;4.714;2022-12-19T13:52:19;9.45;;;5.88;;
22786;SDS011;63134;52.020;4.714;2022-12-19T13:55:11;10.02;;;5.80;;
22786;SDS011;63134;52.020;4.714;2022-12-19T13:58:02;11.88;;;6.32;;
22786;SDS011;63134;52.020;4.714;2022-12-19T14:00:48;9.73;;;5.60;;
22786;SDS011;63134;52.020;4.714;2022-12-19T14:03:38;8.82;;;5.15;;
22786;SDS011;63134;52.020;4.714;2022-12-19T14:06:28;8.30;;;5.25;;
22786;SDS011;63134;52.020;4.714;2022-12-19T14:09:23;8.45;;;5.22;;
22786;SDS011;63134;52.020;4.714;2022-12-19T14:12:39;7.65;;;5.75;;
22786;SDS011;63134;52.020;4.714;2022-12-19T14:16:05;10.52;;;5.50;;
22786;SDS011;63134;52.020;4.714;2022-12-19T14:18:51;11.45;;;4.90;;
22786;SDS011;63134;52.020;4.714;2022-12-19T14:21:39;7.85;;;4.80;;
22786;SDS011;63134;52.020;4.714;2022-12-19T14:24:55;9.55;;;5.38;;
22786;SDS011;63134;52.020;4.714;2022-12-19T14:28:11;10.80;;;4.57;;
22786;SDS011;63134;52.020;4.714;2022-12-19T14:31:14;10.60;;;5.70;;
22786;SDS011;63134;52.020;4.714;2022-12-19T14:34:01;8.18;;;4.53;;
22786;SDS011;63134;52.020;4.714;2022-12-19T14:40:33;7.80;;;5.25;;
22786;SDS011;63134;52.020;4.714;2022-12-19T14:43:44;8.38;;;4.68;;
22786;SDS011;63134;52.020;4.714;2022-12-19T14:47:12;7.07;;;5.28;;
22786;SDS011;63134;52.020;4.714;2022-12-19T14:50:28;8.43;;;4.43;;
22786;SDS011;63134;52.020;4.714;2022-12-19T14:54:00;7.68;;;4.53;;
22786;SDS011;63134;52.020;4.714;2022-12-19T14:57:25;6.78;;;4.75;;
22786;SDS011;63134;52.020;4.714;2022-12-19T15:00:40;9.95;;;4.78;;
22786;SDS011;63134;52.020;4.714;2022-12-19T15:07:22;6.28;;;4.45;;
22786;SDS011;63134;52.020;4.714;2022-12-19T15:16:28;8.88;;;4.32;;
22786;SDS011;63134;52.020;4.714;2022-12-19T15:19:16;9.73;;;4.85;;
22786;SDS011;63134;52.020;4.714;2022-12-19T15:22:01;6.03;;;4.60;;
22786;SDS011;63134;52.020;4.714;2022-12-19T15:24:50;9.27;;;4.85;;
22786;SDS011;63134;52.020;4.714;2022-12-19T15:27:35;7.95;;;4.50;;
22786;SDS011;63134;52.020;4.714;2022-12-19T15:30:24;8.98;;;5.18;;
22786;SDS011;63134;52.020;4.714;2022-12-19T15:33:14;5.25;;;4.00;;
22786;SDS011;63134;52.020;4.714;2022-12-19T15:36:00;8.82;;;4.88;;
22786;SDS011;63134;52.020;4.714;2022-12-19T15:38:46;7.35;;;4.93;;
22786;SDS011;63134;52.020;4.714;2022-12-19T15:41:31;7.72;;;5.43;;
22786;SDS011;63134;52.020;4.714;2022-12-19T15:44:18;10.00;;;5.10;;
22786;SDS011;63134;52.020;4.714;2022-12-19T15:47:17;8.43;;;5.15;;
22786;SDS011;63134;52.020;4.714;2022-12-19T15:53:01;10.63;;;5.03;;
22786;SDS011;63134;52.020;4.714;2022-12-19T15:56:21;6.78;;;4.70;;
22786;SDS011;63134;52.020;4.714;2022-12-19T15:59:30;7.68;;;4.95;;
22786;SDS011;63134;52.020;4.714;2022-12-19T16:02:22;10.35;;;5.45;;
22786;SDS011;63134;52.020;4.714;2022-12-19T16:05:21;10.15;;;6.57;;
22786;SDS011;63134;52.020;4.714;2022-12-19T16:08:11;8.50;;;5.78;;
22786;SDS011;63134;52.020;4.714;2022-12-19T16:10:57;11.70;;;5.97;;
22786;SDS011;63134;52.020;4.714;2022-12-19T16:13:48;9.23;;;4.82;;
22786;SDS011;63134;52.020;4.714;2022-12-19T16:16:38;9.20;;;5.38;;
22786;SDS011;63134;52.020;4.714;2022-12-19T16:19:28;6.93;;;5.22;;
22786;SDS011;63134;52.020;4.714;2022-12-19T16:22:15;9.73;;;4.95;;
22786;SDS011;63134;52.020;4.714;2022-12-19T16:25:04;11.48;;;6.50;;
22786;SDS011;63134;52.020;4.714;2022-12-19T16:27:52;9.35;;;5.22;;
22786;SDS011;63134;52.020;4.714;2022-12-19T16:30:40;8.95;;;5.90;;
22786;SDS011;63134;52.020;4.714;2022-12-19T16:33:28;11.20;;;6.10;;
22786;SDS011;63134;52.020;4.714;2022-12-19T16:36:14;8.00;;;5.30;;
22786;SDS011;63134;52.020;4.714;2022-12-19T16:39:00;9.07;;;6.00;;
22786;SDS011;63134;52.020;4.714;2022-12-19T16:41:45;11.35;;;5.82;;
22786;SDS011;63134;52.020;4.714;2022-12-19T16:44:31;9.27;;;5.85;;
22786;SDS011;63134;52.020;4.714;2022-12-19T16:47:27;9.35;;;5.15;;
22786;SDS011;63134;52.020;4.714;2022-12-19T16:50:19;7.68;;;4.88;;
22786;SDS011;63134;52.020;4.714;2022-12-19T16:53:07;9.38;;;5.40;;
22786;SDS011;63134;52.020;4.714;2022-12-19T16:55:53;10.63;;;4.90;;
22786;SDS011;63134;52.020;4.714;2022-12-19T16:58:40;7.35;;;5.95;;
22786;SDS011;63134;52.020;4.714;2022-12-19T17:01:27;11.73;;;5.65;;
22786;SDS011;63134;52.020;4.714;2022-12-19T17:04:18;9.05;;;5.57;;
22786;SDS011;63134;52.020;4.714;2022-12-19T17:07:07;7.78;;;5.35;;
22786;SDS011;63134;52.020;4.714;2022-12-19T17:09:54;8.45;;;5.80;;
22786;SDS011;63134;52.020;4.714;2022-12-19T17:12:39;13.85;;;6.55;;
22786;SDS011;63134;52.020;4.714;2022-12-19T17:15:31;10.70;;;5.28;;
22786;SDS011;63134;52.020;4.714;2022-12-19T17:21:17;6.47;;;5.68;;
22786;SDS011;63134;52.020;4.714;2022-12-19T17:24:08;7.20;;;5.25;;
22786;SDS011;63134;52.020;4.714;2022-12-19T17:26:57;14.38;;;5.22;;
22786;SDS011;63134;52.020;4.714;2022-12-19T17:29:42;10.27;;;5.15;;
22786;SDS011;63134;52.020;4.714;2022-12-19T17:32:28;10.80;;;5.68;;
22786;SDS011;63134;52.020;4.714;2022-12-19T17:35:20;12.88;;;5.97;;
22786;SDS011;63134;52.020;4.714;2022-12-19T17:38:13;10.60;;;6.05;;
22786;SDS011;63134;52.020;4.714;2022-12-19T17:41:00;9.43;;;5.72;;
22786;SDS011;63134;52.020;4.714;2022-12-19T17:43:45;11.95;;;6.28;;
22786;SDS011;63134;52.020;4.714;2022-12-19T17:46:31;10.70;;;5.95;;
22786;SDS011;63134;52.020;4.714;2022-12-19T17:49:25;10.50;;;6.07;;
22786;SDS011;63134;52.020;4.714;2022-12-19T17:52:13;12.95;;;6.13;;
22786;SDS011;63134;52.020;4.714;2022-12-19T17:55:11;16.15;;;5.95;;
22786;SDS011;63134;52.020;4.714;2022-12-19T17:58:01;9.20;;;5.30;;
22786;SDS011;63134;52.020;4.714;2022-12-19T18:00:46;13.30;;;5.53;;
22786;SDS011;63134;52.020;4.714;2022-12-19T18:03:35;9.75;;;5.70;;
22786;SDS011;63134;52.020;4.714;2022-12-19T18:06:22;9.05;;;6.28;;
22786;SDS011;63134;52.020;4.714;2022-12-19T18:09:14;14.00;;;6.25;;
22786;SDS011;63134;52.020;4.714;2022-12-19T18:12:05;14.40;;;6.35;;
22786;SDS011;63134;52.020;4.714;2022-12-19T18:14:52;12.43;;;6.38;;
22786;SDS011;63134;52.020;4.714;2022-12-19T18:17:38;13.13;;;7.03;;
22786;SDS011;63134;52.020;4.714;2022-12-19T18:23:16;8.50;;;5.82;;
22786;SDS011;63134;52.020;4.714;2022-12-19T18:26:03;11.00;;;5.47;;
22786;SDS011;63134;52.020;4.714;2022-12-19T18:28:49;9.50;;;5.63;;
22786;SDS011;63134;52.020;4.714;2022-12-19T18:31:34;11.68;;;5.57;;
22786;SDS011;63134;52.020;4.714;2022-12-19T18:34:22;10.02;;;6.03;;
22786;SDS011;63134;52.020;4.714;2022-12-19T18:37:15;9.73;;;5.43;;
22786;SDS011;63134;52.020;4.714;2022-12-19T18:40:01;8.68;;;5.60;;
22786;SDS011;63134;52.020;4.714;2022-12-19T18:42:50;10.45;;;5.28;;
22786;SDS011;63134;52.020;4.714;2022-12-19T18:45:36;9.50;;;5.55;;
22786;SDS011;63134;52.020;4.714;2022-12-19T18:48:25;9.93;;;5.57;;
22786;SDS011;63134;52.020;4.714;2022-12-19T18:51:13;8.32;;;5.28;;
22786;SDS011;63134;52.020;4.714;2022-12-19T18:54:01;8.20;;;5.90;;
22786;SDS011;63134;52.020;4.714;2022-12-19T18:56:46;7.15;;;5.47;;
22786;SDS011;63134;52.020;4.714;2022-12-19T18:59:32;12.00;;;5.03;;
22786;SDS011;63134;52.020;4.714;2022-12-19T19:02:27;9.80;;;5.22;;
22786;SDS011;63134;52.020;4.714;2022-12-19T19:05:20;11.40;;;5.65;;
22786;SDS011;63134;52.020;4.714;2022-12-19T19:08:14;9.73;;;5.78;;
22786;SDS011;63134;52.020;4.714;2022-12-19T19:11:22;7.25;;;5.13;;
22786;SDS011;63134;52.020;4.714;2022-12-19T19:14:08;13.85;;;6.65;;
22786;SDS011;63134;52.020;4.714;2022-12-19T19:16:55;11.55;;;6.68;;
22786;SDS011;63134;52.020;4.714;2022-12-19T19:19:43;12.18;;;5.72;;
22786;SDS011;63134;52.020;4.714;2022-12-19T19:22:29;9.95;;;5.68;;